Vero Beach, Florida
Current Conditions -  °F | °C
As of 8:53 AM on Sunday 21 Dec 2014 (Local Time) from KVRB Reporting Station
Clear Clear  
Wind Chill: 21°   Ceiling: Unl
Heat Index: 21°   Visibility: 10mi
Dew Point: 18°   Wind: 3mph
Humidity: 84%   Direction: 200°SSW
Pressure: 30.1"   Gusts: NA
Location:  27.64°N, 80.39°W
Report Text: KVRB 211353Z 20003KT 10SM CLR 21/18 A3010 RMK AO2 SLP193 T02060178
Loading
Personal Weather Stations






























Interactive Weather Map New forecast layout! Learn more

10-Day Weather Forecast

Advertisements
Track Severe Weather on mobile